메인 페이지
METAR-TAF:

METAR-TAF

공항 :

미코노스 섬, 그리스

위도: 37-26-09N, 경도: 025-20-45E, 고도: 123m

현재 날씨관측

예보는 30분 전, 16:20시(UTC)에 발표되었습니다.
12kt
온도 20°C
습도 64%
기압 1018 hPa
시정 10km 이상
고도 1000ft 상공 구름 보통
고도 2500ft 상공 구름 보통

METAR: LGMK 211620Z 36012KT 9999 SCT010 SCT025 20/13 Q1018

시각: 19:50 (16:50 UTC)

예보

예보는 2 시간 50분 전, 14:00시(UTC)에 발표되었습니다.
예보 대상 시간: 21일 15시부터 21일 24시까지 (UTC)
16kt
시정 10km 이상
고도 1000ft 상공 구름 보통
고도 2500ft 상공 구름 보통
일시적
21일 15시부터 21일 18시까지 (UTC)
16kt, 순간 최대 풍속 26kt
확률 30% :
일시적
21일 15시부터 21일 24시까지 (UTC)
시정: 5000m
고도 1200ft 상공 구름 보통
고도 1800ft 상공 구름 조금, 적란운.
고도 2000ft 상공 구름 많음
뇌우, 비

TAF: LGMK 211400Z 2115/2124 36016KT 9999 SCT010 SCT025 TEMPO 2115/2118 36016G26KT PROB30 TEMPO 2115/2124 5000 TSRA SCT012 FEW018CB BKN020

4,000개 이상의 공항 관측 자료 및 예보 (METAR 및 TAF 보고).

지도상에서 검색 가능한 기상관측소가 노란 점과 빨간 점으로 표시되어 있습니다.

기상관측소 명을 보려면 표시 위로 마우스를 이동하세요.

날씨 관측과 예보를 보려면 클릭하세요.

지도 변경 : 확대하려면 엑스 표시가 있는 녹색 버튼, 축소하려면 빼기 표시가 있는 녹색 버튼, 다음 페이지의 지도를 보려면 녹색 화살표를 클릭하세요.


METAR-TAF: